Wetterdaten: Montag, 02.02.2015
Datum Zeit Temp. A. Feuchte A. Luftdruck Regen Wind Richtung Richtung Sonnenschein ET UV Solar Taupunkt Windchill Windben Empfang
02.02.2015 00:00 -1,4 C 68 % 994,6 hPa 0,0 l/m 0,0 km/h (0 Bft) S-SW 207 0 min 0,000 mm 0,0 UV-I 0 W/m -6,5 C -1,4 C 0,0 km/h (0 Bft) 0,00 %
02.02.2015 00:15 -1,3 C 68 % 994,9 hPa 0,0 l/m 0,0 km/h (0 Bft) S 188 0 min 0,000 mm 0,0 UV-I 0 W/m -6,4 C -1,3 C 0,0 km/h (0 Bft) 0,00 %
02.02.2015 00:30 -1,2 C 67 % 994,7 hPa 0,0 l/m 0,0 km/h (0 Bft) SW 216 0 min 0,000 mm 0,0 UV-I 0 W/m -6,5 C -1,2 C 0,0 km/h (0 Bft) 0,00 %
02.02.2015 00:45 -1,2 C 68 % 994,9 hPa 0,0 l/m 0,0 km/h (0 Bft) S-SW 204 0 min 0,000 mm 0,0 UV-I 0 W/m -6,3 C -1,2 C 0,0 km/h (0 Bft) 0,00 %
02.02.2015 01:00 -1,3 C 69 % 995,0 hPa 0,0 l/m 0,0 km/h (0 Bft) SW 233 0 min 0,000 mm 0,0 UV-I 0 W/m -6,2 C -1,3 C 0,0 km/h (0 Bft) 0,00 %
02.02.2015 01:15 -1,4 C 68 % 995,0 hPa 0,0 l/m 0,0 km/h (0 Bft) SW 219 0 min 0,000 mm 0,0 UV-I 0 W/m -6,5 C -1,4 C 0,0 km/h (0 Bft) 0,00 %
02.02.2015 01:30 -1,5 C 70 % 994,9 hPa 0,0 l/m 0,0 km/h (0 Bft) SW 235 0 min 0,000 mm 0,0 UV-I 0 W/m -6,2 C -1,5 C 0,0 km/h (0 Bft) 0,00 %
02.02.2015 01:45 -2,0 C 72 % 995,2 hPa 0,0 l/m 0,0 km/h (0 Bft) S-SW 200 0 min 0,000 mm 0,0 UV-I 0 W/m -6,4 C -2,0 C 0,0 km/h (0 Bft) 0,00 %
02.02.2015 02:00 -2,4 C 69 % 995,2 hPa 0,0 l/m 0,0 km/h (0 Bft) S-SW 200 0 min 0,000 mm 0,0 UV-I 0 W/m -7,3 C -2,4 C 0,0 km/h (0 Bft) 0,00 %
02.02.2015 02:15 -2,3 C 73 % 995,3 hPa 0,0 l/m 0,0 km/h (0 Bft) W-SW 251 0 min 0,000 mm 0,0 UV-I 0 W/m -6,5 C -2,3 C 0,0 km/h (0 Bft) 0,00 %
02.02.2015 02:30 -1,7 C 74 % 995,0 hPa 0,0 l/m 0,0 km/h (0 Bft) S-SW 201 0 min 0,000 mm 0,0 UV-I 0 W/m -5,7 C -1,7 C 0,0 km/h (0 Bft) 0,00 %
02.02.2015 02:45 -1,5 C 74 % 994,9 hPa 0,0 l/m 0,0 km/h (0 Bft) SW 220 0 min 0,000 mm 0,0 UV-I 0 W/m -5,5 C -1,5 C 0,0 km/h (0 Bft) 0,00 %
02.02.2015 03:00 -1,5 C 74 % 995,0 hPa 0,0 l/m 0,0 km/h (0 Bft) W-SW 256 0 min 0,000 mm 0,0 UV-I 0 W/m -5,5 C -1,5 C 0,0 km/h (0 Bft) 0,00 %
02.02.2015 03:15 -1,4 C 76 % 995,0 hPa 0,0 l/m 0,0 km/h (0 Bft) S-SW 212 0 min 0,000 mm 0,0 UV-I 0 W/m -5,1 C -1,4 C 0,0 km/h (0 Bft) 0,00 %
02.02.2015 03:30 -1,6 C 80 % 995,1 hPa 0,0 l/m 0,4 km/h (0 Bft) S-SW 194 0 min 0,000 mm 0,0 UV-I 0 W/m -4,6 C -1,6 C 4,0 km/h (1 Bft) 0,00 %
02.02.2015 03:45 -1,7 C 82 % 994,9 hPa 0,0 l/m 0,0 km/h (0 Bft) SW 231 0 min 0,000 mm 0,0 UV-I 0 W/m -4,4 C -1,7 C 0,0 km/h (0 Bft) 0,00 %
02.02.2015 04:00 -1,6 C 82 % 994,9 hPa 0,0 l/m 0,0 km/h (0 Bft) SW 230 0 min 0,000 mm 0,0 UV-I 0 W/m -4,3 C -1,6 C 0,0 km/h (0 Bft) 0,00 %
02.02.2015 04:15 -1,5 C 81 % 995,1 hPa 0,0 l/m 0,0 km/h (0 Bft) SW 215 0 min 0,000 mm 0,0 UV-I 0 W/m -4,3 C -1,5 C 0,0 km/h (0 Bft) 0,00 %
02.02.2015 04:30 -1,4 C 81 % 995,0 hPa 0,0 l/m 0,0 km/h (0 Bft) W-SW 252 0 min 0,000 mm 0,0 UV-I 0 W/m -4,2 C -1,4 C 0,0 km/h (0 Bft) 0,00 %
02.02.2015 04:45 -1,3 C 81 % 995,0 hPa 0,0 l/m 0,0 km/h (0 Bft) SW 216 0 min 0,000 mm 0,0 UV-I 0 W/m -4,1 C -1,3 C 0,0 km/h (0 Bft) 0,00 %
02.02.2015 05:00 -1,4 C 82 % 994,9 hPa 0,0 l/m 0,0 km/h (0 Bft) S 190 0 min 0,000 mm 0,0 UV-I 0 W/m -4,1 C -1,4 C 0,0 km/h (0 Bft) 0,00 %
02.02.2015 05:15 -1,3 C 82 % 995,0 hPa 0,0 l/m 0,0 km/h (0 Bft) W-SW 240 0 min 0,000 mm 0,0 UV-I 0 W/m -4,0 C -1,3 C 0,0 km/h (0 Bft) 0,00 %
02.02.2015 05:30 -1,0 C 82 % 994,7 hPa 0,0 l/m 0,0 km/h (0 Bft) W-SW 251 0 min 0,000 mm 0,0 UV-I 0 W/m -3,7 C -1,0 C 0,0 km/h (0 Bft) 0,00 %
02.02.2015 05:45 -0,9 C 81 % 995,0 hPa 0,0 l/m 0,7 km/h (0 Bft) W-SW 253 0 min 0,000 mm 0,0 UV-I 0 W/m -3,7 C -0,9 C 4,0 km/h (1 Bft) 0,00 %
02.02.2015 06:00 -0,9 C 81 % 995,2 hPa 0,0 l/m 0,0 km/h (0 Bft) W-SW 256 0 min 0,000 mm 0,0 UV-I 0 W/m -3,7 C -0,9 C 0,0 km/h (0 Bft) 0,00 %
02.02.2015 06:15 -0,8 C 81 % 995,1 hPa 0,0 l/m 3,2 km/h (1 Bft) W-SW 255 0 min 0,000 mm 0,0 UV-I 0 W/m -3,6 C -0,8 C 7,9 km/h (2 Bft) 0,00 %
02.02.2015 06:30 -0,9 C 81 % 995,3 hPa 0,0 l/m 0,0 km/h (0 Bft) S 173 0 min 0,000 mm 0,0 UV-I 0 W/m -3,7 C -0,9 C 0,0 km/h (0 Bft) 0,00 %
02.02.2015 06:45 -0,9 C 81 % 995,3 hPa 0,0 l/m 0,0 km/h (0 Bft) W-SW 256 0 min 0,000 mm 0,0 UV-I 0 W/m -3,7 C -0,9 C 0,0 km/h (0 Bft) 0,00 %
02.02.2015 07:00 -1,1 C 82 % 995,5 hPa 0,0 l/m 0,0 km/h (0 Bft) O-SO 123 0 min 0,000 mm 0,0 UV-I 0 W/m -3,8 C -1,1 C 0,0 km/h (0 Bft) 0,00 %
02.02.2015 07:15 -1,1 C 82 % 995,6 hPa 0,0 l/m 0,0 km/h (0 Bft) W-SW 254 0 min 0,000 mm 0,0 UV-I 0 W/m -3,8 C -1,1 C 0,0 km/h (0 Bft) 0,00 %
02.02.2015 07:30 -1,0 C 82 % 995,6 hPa 0,0 l/m 0,0 km/h (0 Bft) W-SW 252 0 min 0,000 mm 0,0 UV-I 0 W/m -3,7 C -1,0 C 0,0 km/h (0 Bft) 0,00 %
02.02.2015 07:45 -1,0 C 82 % 995,9 hPa 0,0 l/m 0,0 km/h (0 Bft) SW 219 0 min 0,000 mm 0,0 UV-I 0 W/m -3,7 C -1,0 C 0,0 km/h (0 Bft) 0,00 %
02.02.2015 08:00 -1,0 C 82 % 996,1 hPa 0,0 l/m 0,0 km/h (0 Bft) S-SW 207 0 min 0,000 mm 0,0 UV-I 1 W/m -3,7 C -1,0 C 0,0 km/h (0 Bft) 0,00 %
02.02.2015 08:15 -0,9 C 82 % 995,8 hPa 0,0 l/m 0,0 km/h (0 Bft) S-SW 209 0 min 0,000 mm 0,0 UV-I 8 W/m -3,6 C -0,9 C 0,0 km/h (0 Bft) 0,00 %
02.02.2015 08:30 -0,8 C 81 % 995,9 hPa 0,0 l/m 0,0 km/h (0 Bft) S-SW 203 0 min 0,000 mm 0,0 UV-I 9 W/m -3,6 C -0,8 C 0,0 km/h (0 Bft) 0,00 %
02.02.2015 08:45 -0,3 C 76 % 996,2 hPa 0,0 l/m 0,0 km/h (0 Bft) S-SW 211 0 min 0,000 mm 0,0 UV-I 55 W/m -4,0 C -0,3 C 0,0 km/h (0 Bft) 0,00 %
02.02.2015 09:00 -0,1 C 74 % 996,1 hPa 0,0 l/m 0,0 km/h (0 Bft) SW 217 0 min 0,000 mm 0,0 UV-I 71 W/m -4,2 C -0,1 C 0,0 km/h (0 Bft) 0,00 %
02.02.2015 09:15 -0,2 C 75 % 996,2 hPa 0,0 l/m 0,0 km/h (0 Bft) S-SW 193 0 min 0,000 mm 0,0 UV-I 74 W/m -4,1 C -0,2 C 0,0 km/h (0 Bft) 0,00 %
02.02.2015 09:30 -0,1 C 75 % 996,2 hPa 0,0 l/m 0,0 km/h (0 Bft) W-SW 251 0 min 0,000 mm 0,0 UV-I 60 W/m -4,0 C -0,1 C 0,0 km/h (0 Bft) 0,00 %
02.02.2015 09:45 0,1 C 74 % 996,4 hPa 0,0 l/m 0,0 km/h (0 Bft) SO 135 0 min 0,000 mm 0,0 UV-I 75 W/m -4,0 C 0,1 C 0,0 km/h (0 Bft) 0,00 %
02.02.2015 10:00 0,2 C 73 % 996,6 hPa 0,0 l/m 0,0 km/h (0 Bft) S 176 15 min 0,000 mm 1,0 UV-I 200 W/m -4,1 C 0,2 C 0,0 km/h (0 Bft) 0,00 %
02.02.2015 10:15 0,8 C 71 % 996,8 hPa 0,0 l/m 0,0 km/h (0 Bft) N-NW 330 15 min 0,000 mm 1,0 UV-I 211 W/m -3,8 C 0,8 C 0,0 km/h (0 Bft) 0,00 %
02.02.2015 10:30 0,8 C 71 % 996,8 hPa 0,0 l/m 0,0 km/h (0 Bft) SO 130 15 min 0,000 mm 1,0 UV-I 222 W/m -3,8 C 0,8 C 0,0 km/h (0 Bft) 0,00 %
02.02.2015 10:45 1,1 C 70 % 996,8 hPa 0,0 l/m 0,0 km/h (0 Bft) S 179 15 min 0,000 mm 1,0 UV-I 233 W/m -3,7 C 1,1 C 0,0 km/h (0 Bft) 0,00 %
02.02.2015 11:00 0,8 C 71 % 996,9 hPa 0,0 l/m 0,0 km/h (0 Bft) W-SW 253 15 min 0,000 mm 1,0 UV-I 233 W/m -3,8 C 0,8 C 0,0 km/h (0 Bft) 0,00 %
02.02.2015 11:15 0,5 C 75 % 997,0 hPa 0,0 l/m 0,0 km/h (0 Bft) S-SW 198 15 min 0,000 mm 1,0 UV-I 244 W/m -3,4 C 0,5 C 0,0 km/h (0 Bft) 0,00 %
02.02.2015 11:30 0,3 C 78 % 996,9 hPa 0,0 l/m 0,0 km/h (0 Bft) W-SW 253 0 min 0,000 mm 1,0 UV-I 200 W/m -3,1 C 0,3 C 0,0 km/h (0 Bft) 0,00 %
02.02.2015 11:45 0,5 C 77 % 997,3 hPa 0,0 l/m 0,0 km/h (0 Bft) S 179 0 min 0,000 mm 2,0 UV-I 180 W/m -3,1 C 0,5 C 0,0 km/h (0 Bft) 0,00 %
02.02.2015 12:00 0,8 C 75 % 997,0 hPa 0,0 l/m 1,4 km/h (1 Bft) S 191 0 min 0,000 mm 1,0 UV-I 196 W/m -3,1 C 0,8 C 4,0 km/h (1 Bft) 0,00 %
02.02.2015 12:15 0,5 C 76 % 997,3 hPa 0,0 l/m 2,9 km/h (1 Bft) W-SW 251 0 min 0,000 mm 2,0 UV-I 220 W/m -3,2 C 0,5 C 7,9 km/h (2 Bft) 0,00 %
02.02.2015 12:30 0,7 C 73 % 997,6 hPa 0,0 l/m 1,8 km/h (1 Bft) S-SW 202 0 min 0,000 mm 2,0 UV-I 180 W/m -3,6 C 0,7 C 4,0 km/h (1 Bft) 0,00 %
02.02.2015 12:45 1,0 C 71 % 997,5 hPa 0,0 l/m 0,4 km/h (0 Bft) S-SW 203 0 min 0,000 mm 2,0 UV-I 190 W/m -3,7 C 1,0 C 4,0 km/h (1 Bft) 0,00 %
02.02.2015 13:00 1,2 C 69 % 997,6 hPa 0,0 l/m 2,9 km/h (1 Bft) W-SW 256 15 min 0,000 mm 2,0 UV-I 244 W/m -3,8 C 1,2 C 7,9 km/h (2 Bft) 0,00 %
02.02.2015 13:15 1,7 C 67 % 997,7 hPa 0,0 l/m 6,8 km/h (2 Bft) W-NW 283 15 min 0,000 mm 2,0 UV-I 276 W/m -3,8 C 1,3 C 7,9 km/h (2 Bft) 0,00 %
02.02.2015 13:30 1,2 C 69 % 997,7 hPa 0,3 l/m 0,4 km/h (0 Bft) N-NW 337 0 min 0,000 mm 2,0 UV-I 186 W/m -3,8 C 1,2 C 4,0 km/h (1 Bft) 0,00 %
02.02.2015 13:45 0,9 C 69 % 997,8 hPa 0,0 l/m 0,4 km/h (0 Bft) S 183 0 min 0,000 mm 2,0 UV-I 180 W/m -4,1 C 0,9 C 4,0 km/h (1 Bft) 0,00 %
02.02.2015 14:00 1,3 C 66 % 997,9 hPa 0,0 l/m 2,9 km/h (1 Bft) W-SW 256 0 min 0,000 mm 2,0 UV-I 145 W/m -4,3 C 1,3 C 4,0 km/h (1 Bft) 0,00 %
02.02.2015 14:15 1,0 C 65 % 997,9 hPa 0,0 l/m 3,2 km/h (1 Bft) W-SW 250 0 min 0,000 mm 2,0 UV-I 130 W/m -4,8 C 1,0 C 7,9 km/h (2 Bft) 0,00 %
02.02.2015 14:30 1,7 C 61 % 998,0 hPa 0,0 l/m 1,4 km/h (1 Bft) W-SW 252 15 min 0,000 mm 1,0 UV-I 238 W/m -5,0 C 1,7 C 4,0 km/h (1 Bft) 0,00 %
02.02.2015 14:45 0,9 C 61 % 998,3 hPa 0,0 l/m 5,8 km/h (2 Bft) W 261 15 min 0,000 mm 1,0 UV-I 211 W/m -5,8 C 0,9 C 7,9 km/h (2 Bft) 0,00 %
02.02.2015 15:00 0,8 C 62 % 998,4 hPa 0,3 l/m 2,2 km/h (1 Bft) W 263 0 min 0,000 mm 1,0 UV-I 113 W/m -5,6 C 0,8 C 7,9 km/h (2 Bft) 0,00 %
02.02.2015 15:15 0,7 C 61 % 998,4 hPa 0,0 l/m 6,5 km/h (2 Bft) NW 312 0 min 0,000 mm 1,0 UV-I 101 W/m -5,9 C 0,6 C 11,9 km/h (2 Bft) 0,00 %
02.02.2015 15:30 0,6 C 62 % 998,5 hPa 0,0 l/m 0,0 km/h (0 Bft) W-SW 252 0 min 0,000 mm 1,0 UV-I 87 W/m -5,8 C 0,6 C 0,0 km/h (0 Bft) 0,00 %
02.02.2015 15:45 0,1 C 64 % 998,7 hPa 0,0 l/m 0,4 km/h (0 Bft) SW 214 0 min 0,000 mm 1,0 UV-I 77 W/m -5,9 C 0,1 C 4,0 km/h (1 Bft) 0,00 %
02.02.2015 16:00 -0,3 C 65 % 998,7 hPa 0,0 l/m 6,8 km/h (2 Bft) SW 225 0 min 0,000 mm 1,0 UV-I 42 W/m -6,1 C -0,7 C 11,9 km/h (2 Bft) 0,00 %
02.02.2015 16:15 -0,4 C 64 % 998,9 hPa 0,0 l/m 1,8 km/h (1 Bft) W-SW 253 0 min 0,000 mm 0,0 UV-I 44 W/m -6,4 C -0,4 C 4,0 km/h (1 Bft) 0,00 %
02.02.2015 16:30 -0,4 C 64 % 998,7 hPa 0,0 l/m 1,4 km/h (1 Bft) W-NW 295 0 min 0,000 mm 0,0 UV-I 25 W/m -6,4 C -0,4 C 4,0 km/h (1 Bft) 0,00 %
02.02.2015 16:45 -0,5 C 66 % 998,6 hPa 0,0 l/m 0,0 km/h (0 Bft) SW 216 0 min 0,000 mm 0,0 UV-I 15 W/m -6,1 C -0,5 C 0,0 km/h (0 Bft) 0,00 %
02.02.2015 17:00 -1,1 C 66 % 999,1 hPa 0,0 l/m 0,4 km/h (0 Bft) W-NW 290 0 min 0,000 mm 0,0 UV-I 3 W/m -6,6 C -1,1 C 4,0 km/h (1 Bft) 0,00 %
02.02.2015 17:15 -1,4 C 68 % 999,0 hPa 0,0 l/m 0,0 km/h (0 Bft) S-SO 158 0 min 0,000 mm 0,0 UV-I 0 W/m -6,5 C -1,4 C 0,0 km/h (0 Bft) 0,00 %
02.02.2015 17:30 -2,0 C 69 % 999,4 hPa 0,0 l/m 0,0 km/h (0 Bft) W-SW 250 0 min 0,000 mm 0,0 UV-I 0 W/m -6,9 C -2,0 C 0,0 km/h (0 Bft) 0,00 %
02.02.2015 17:45 -2,2 C 72 % 999,4 hPa 0,0 l/m 0,0 km/h (0 Bft) SW 228 0 min 0,000 mm 0,0 UV-I 0 W/m -6,5 C -2,2 C 0,0 km/h (0 Bft) 0,00 %
02.02.2015 18:00 -2,2 C 73 % 999,4 hPa 0,0 l/m 0,0 km/h (0 Bft) SO 138 0 min 0,000 mm 0,0 UV-I 0 W/m -6,4 C -2,2 C 0,0 km/h (0 Bft) 0,00 %
02.02.2015 18:15 -1,7 C 73 % 999,4 hPa 0,0 l/m 0,0 km/h (0 Bft) O-SO 111 0 min 0,000 mm 0,0 UV-I 0 W/m -5,9 C -1,7 C 0,0 km/h (0 Bft) 0,00 %
02.02.2015 18:30 -1,8 C 73 % 999,6 hPa 0,0 l/m 0,0 km/h (0 Bft) N-NW 327 0 min 0,000 mm 0,0 UV-I 0 W/m -6,0 C -1,8 C 0,0 km/h (0 Bft) 0,00 %
02.02.2015 18:45 -1,8 C 74 % 999,8 hPa 0,0 l/m 0,7 km/h (0 Bft) W-SW 250 0 min 0,000 mm 0,0 UV-I 0 W/m -5,8 C -1,8 C 4,0 km/h (1 Bft) 0,00 %
02.02.2015 19:00 -1,5 C 73 % 999,7 hPa 0,0 l/m 0,0 km/h (0 Bft) O 83 0 min 0,000 mm 0,0 UV-I 0 W/m -5,7 C -1,5 C 0,0 km/h (0 Bft) 0,00 %
02.02.2015 19:15 -1,3 C 72 % 999,9 hPa 0,0 l/m 0,0 km/h (0 Bft) S-SW 195 0 min 0,000 mm 0,0 UV-I 0 W/m -5,7 C -1,3 C 0,0 km/h (0 Bft) 0,00 %
02.02.2015 19:30 -1,1 C 72 % 1000,0 hPa 0,0 l/m 1,8 km/h (1 Bft) W-SW 255 0 min 0,000 mm 0,0 UV-I 0 W/m -5,5 C -1,1 C 4,0 km/h (1 Bft) 0,00 %
02.02.2015 19:45 -1,0 C 72 % 999,9 hPa 0,0 l/m 0,0 km/h (0 Bft) SW 221 0 min 0,000 mm 0,0 UV-I 0 W/m -5,4 C -1,0 C 0,0 km/h (0 Bft) 0,00 %
02.02.2015 20:00 -1,1 C 72 % 1000,1 hPa 0,0 l/m 1,4 km/h (1 Bft) NO 54 0 min 0,000 mm 0,0 UV-I 0 W/m -5,5 C -1,1 C 4,0 km/h (1 Bft) 0,00 %
02.02.2015 20:15 -1,1 C 72 % 1000,1 hPa 0,0 l/m 0,4 km/h (0 Bft) W-SW 253 0 min 0,000 mm 0,0 UV-I 0 W/m -5,5 C -1,1 C 4,0 km/h (1 Bft) 0,00 %
02.02.2015 20:30 -1,0 C 72 % 1000,2 hPa 0,0 l/m 4,0 km/h (1 Bft) W-NW 289 0 min 0,000 mm 0,0 UV-I 0 W/m -5,4 C -1,0 C 7,9 km/h (2 Bft) 0,00 %
02.02.2015 20:45 -1,2 C 72 % 1000,3 hPa 0,0 l/m 1,4 km/h (1 Bft) W-SW 255 0 min 0,000 mm 0,0 UV-I 0 W/m -5,6 C -1,2 C 4,0 km/h (1 Bft) 0,00 %
02.02.2015 21:00 -1,4 C 72 % 1000,3 hPa 0,0 l/m 0,0 km/h (0 Bft) S-SW 198 0 min 0,000 mm 0,0 UV-I 0 W/m -5,8 C -1,4 C 0,0 km/h (0 Bft) 0,00 %
02.02.2015 21:15 -1,4 C 72 % 1000,6 hPa 0,0 l/m 0,0 km/h (0 Bft) W-SW 252 0 min 0,000 mm 0,0 UV-I 0 W/m -5,8 C -1,4 C 0,0 km/h (0 Bft) 0,00 %
02.02.2015 21:30 -1,3 C 72 % 1000,7 hPa 0,0 l/m 0,0 km/h (0 Bft) S-SW 197 0 min 0,000 mm 0,0 UV-I 0 W/m -5,7 C -1,3 C 0,0 km/h (0 Bft) 0,00 %
02.02.2015 21:45 -1,3 C 74 % 1000,8 hPa 0,0 l/m 0,4 km/h (0 Bft) S 172 0 min 0,000 mm 0,0 UV-I 0 W/m -5,3 C -1,3 C 4,0 km/h (1 Bft) 0,00 %
02.02.2015 22:00 -1,5 C 80 % 1000,7 hPa 0,0 l/m 0,4 km/h (0 Bft) SW 227 0 min 0,000 mm 0,0 UV-I 0 W/m -4,5 C -1,5 C 4,0 km/h (1 Bft) 0,00 %
02.02.2015 22:15 -1,7 C 81 % 1000,7 hPa 0,0 l/m 0,7 km/h (0 Bft) N 357 0 min 0,000 mm 0,0 UV-I 0 W/m -4,5 C -1,7 C 4,0 km/h (1 Bft) 0,00 %
02.02.2015 22:30 -1,7 C 81 % 1000,6 hPa 0,0 l/m 0,0 km/h (0 Bft) S-SW 213 0 min 0,000 mm 0,0 UV-I 0 W/m -4,5 C -1,7 C 0,0 km/h (0 Bft) 0,00 %
02.02.2015 22:45 -2,0 C 81 % 1000,7 hPa 0,0 l/m 0,0 km/h (0 Bft) S-SW 208 0 min 0,000 mm 0,0 UV-I 0 W/m -4,8 C -2,0 C 0,0 km/h (0 Bft) 0,00 %
02.02.2015 23:00 -2,1 C 81 % 1000,9 hPa 0,0 l/m 0,7 km/h (0 Bft) SW 227 0 min 0,000 mm 0,0 UV-I 0 W/m -4,9 C -2,1 C 4,0 km/h (1 Bft) 0,00 %
02.02.2015 23:15 -1,8 C 81 % 1000,9 hPa 0,0 l/m 0,4 km/h (0 Bft) SW 217 0 min 0,000 mm 0,0 UV-I 0 W/m -4,6 C -1,8 C 4,0 km/h (1 Bft) 0,00 %
02.02.2015 23:30 -1,5 C 80 % 1000,8 hPa 0,0 l/m 0,0 km/h (0 Bft) O 84 0 min 0,000 mm 0,0 UV-I 0 W/m -4,5 C -1,5 C 0,0 km/h (0 Bft) 0,00 %
02.02.2015 23:45 -1,4 C 80 % 1001,2 hPa 0,0 l/m 0,0 km/h (0 Bft) W-SW 254 0 min 0,000 mm 0,0 UV-I 0 W/m -4,4 C -1,4 C 0,0 km/h (0 Bft) 0,00 %
_ Min-Zeit 02:00 14:30 00:00 - 00:00 - - - - - - 02:00 02:00 00:00 00:00
Minimum _ -2,4 C 61 % 994,6 hPa - 0,0 km/h (0 Bft) - - - - - - -7,3 C -2,4 C 0,0 km/h (0 Bft) 0,00 %
_ Max-Zeit 13:15 03:45 23:45 13:30 13:15 - - 10:00 00:00 11:45 13:15 11:45 14:30 15:15 00:00
Maximum _ 1,7 C 82 % 1001,2 hPa 0,3 l/m 6,8 km/h
W-NW (2 Bft)
- - 15 min 0,000 mm 2,0 UV-I 276 W/m -3,1 C 1,7 C 11,9 km/h
NW (2 Bft)
0,00 %
Durchschnitt _ -0,7 C 74 % 997,4 hPa #0,6 l/m 0,7 km/h (0 Bft) W-SW - #2:30 h #0,000 mm 1,4 UV-I 135 W/m -4,9 C -0,7 C 1,9 km/h (1 Bft) 0,00 %